Flight Track Log - Related Links

Times and Time Zones

All times are in EDT time to prevent confusion due to time zone crossing. See the MRA689 flight status page for this flight to view local times or setup timezone preferences in your user account.

Time Position Orientation Groundspeed Altitude Reporting Facility
EDT Latitude Longitude Course Direction KTS MPH feet Rate Location/Type
Sat 10:58:42 AM 37.7333 -122.2500 302° West 98 113 1,200  Level Northern Cal TRACON
Sat 10:59:42 AM 37.7500 -122.2833 302° West 111 128 2,100 791 Climbing Northern Cal TRACON
Sat 11:00:13 AM 37.7519 -122.2936 283° West 105 121 2,400 848 Climbing Oakland Center
Sat 11:01:14 AM 37.7525 -122.3433 271° West 119 137 3,400 984 Climbing Oakland Center
Sat 11:02:15 AM 37.7394 -122.3831 247° West 123 142 4,400 955 Climbing Oakland Center
Sat 11:02:42 AM 37.7333 -122.3833 182° South 122 140 4,800 885 Climbing Northern Cal TRACON
Sat 11:04:17 AM 37.6744 -122.4067 197° South 121 139 6,200 850 Climbing Oakland Center
Sat 11:04:42 AM 37.6667 -122.4167 226° Southwest 130 150 6,500 565 Climbing Northern Cal TRACON
Sat 11:05:42 AM 37.6167 -122.4333 195° South 149 171 7,000 309 Climbing Northern Cal TRACON
Sat 11:06:19 AM 37.5981 -122.4361 187° South 149 171 7,000  Level Oakland Center
Sat 11:07:20 AM 37.5517 -122.4528 196° South 171 197 7,000  Level Oakland Center
Sat 11:08:21 AM 37.5036 -122.4711 197° South 179 206 7,000  Level Oakland Center
Sat 11:09:22 AM 37.4561 -122.4869 195° South 178 205 7,000  Level Oakland Center
Sat 11:10:23 AM 37.4075 -122.4778 171° South 191 220 7,000  Level Oakland Center
Sat 11:11:24 AM 37.3656 -122.4458 149° Southeast 180 207 7,000  Level Oakland Center
Sat 11:12:24 AM 37.3219 -122.4158 151° Southeast 179 206 7,000  Level Oakland Center
Sat 11:13:25 AM 37.2797 -122.3853 150° Southeast 176 203 7,000  Level Oakland Center
Sat 11:14:26 AM 37.2383 -122.3547 150° Southeast 174 200 7,000  Level Oakland Center
Sat 11:15:27 AM 37.1894 -122.3208 151° Southeast 169 194 7,000  Level Oakland Center
Sat 11:16:28 AM 37.1481 -122.2903 150° Southeast 171 197 7,000  Level Oakland Center
Sat 11:17:29 AM 37.1058 -122.2619 152° Southeast 174 200 7,000 -246 Level Oakland Center
Sat 11:18:30 AM 37.0614 -122.2353 154° Southeast 176 203 6,500 -492 Descending Oakland Center
Sat 11:19:31 AM 37.0144 -122.2092 156° South 180 207 6,000 -541 Descending Oakland Center
Sat 11:20:32 AM 36.9678 -122.1794 153° Southeast 185 213 5,400 -492 Descending Oakland Center
Sat 11:21:33 AM 36.9231 -122.1511 153° Southeast 184 212 5,000 -182 Descending Oakland Center
Sat 11:22:44 AM 36.8667 -122.1167 154° Southeast 168 193 5,000 -321 Level Northern Cal TRACON
Sat 11:23:44 AM 36.8167 -122.1000 165° South 186 214 4,300 -950 Descending Northern Cal TRACON
Sat 11:24:44 AM 36.7667 -122.0833 165° South 193 222 3,100 -650 Descending Northern Cal TRACON
Sat 11:25:44 AM 36.7333 -122.0667 158° South 162 186 3,000 -350 Descending Northern Cal TRACON
Sat 11:26:44 AM 36.6833 -122.0500 165° South 159 183 2,400 -300 Descending Northern Cal TRACON
Sat 11:27:44 AM 36.6500 -122.0167 141° Southeast 135 155 2,400  Level Northern Cal TRACON
Sat 11:28:44 AM 36.6333 -121.9833 122° Southeast 128 147 2,400 -300 Level Northern Cal TRACON
Sat 11:29:44 AM 36.6167 -121.9500 122° Southeast 138 159 1,800 -700 Descending Northern Cal TRACON
Sat 11:30:44 AM 36.6000 -121.9000 113° Southeast 124 143 1,000 -700 Descending Northern Cal TRACON
Sat 11:31:44 AM 36.6000 -121.8667 90° East 112 129 400 -600 Descending Northern Cal TRACON
Sat 11:33:00 AM 36.5870 -121.8429 122° Southeast  Level Estimated

Login

Don't have an account? Register now (free) for customized features, flight alerts, and more!